TimeEST,TemperatureF,Dew PointF,Humidity,Sea Level PressureIn,VisibilityMPH,Wind Direction,Wind SpeedMPH,Gust SpeedMPH,PrecipitationIn,Events,Conditions,WindDirDegrees,DateUTC
12:53 AM,9.0,3.0,77,30.49,10.0,WNW,4.6,-,N/A,,Overcast,300,2014-01-09 05:53:00
1:53 AM,8.1,3.0,80,30.52,10.0,WNW,9.2,-,N/A,,Overcast,290,2014-01-09 06:53:00
2:53 AM,8.1,3.0,80,30.52,10.0,WNW,4.6,-,N/A,,Overcast,300,2014-01-09 07:53:00
3:53 AM,8.1,1.9,76,30.54,10.0,Calm,Calm,-,N/A,,Overcast,0,2014-01-09 08:53:00
4:09 AM,7.0,1.9,80,30.46,10.0,West,3.5,-,N/A,,Overcast,270,2014-01-09 09:09:00
4:53 AM,6.1,1.9,83,30.54,10.0,SW,4.6,-,N/A,,Overcast,230,2014-01-09 09:53:00
5:53 AM,5.0,1.0,84,30.54,10.0,Calm,Calm,-,N/A,,Overcast,0,2014-01-09 10:53:00
6:53 AM,-0.9,-4.0,87,30.54,10.0,SSW,4.6,-,N/A,,Overcast,200,2014-01-09 11:53:00
7:53 AM,3.9,1.0,88,30.55,9.0,SSW,5.8,-,N/A,,Overcast,200,2014-01-09 12:53:00
8:42 AM,3.9,1.0,88,30.47,9.0,SSW,6.9,-,0.00,,Overcast,200,2014-01-09 13:42:00
8:53 AM,3.9,1.0,88,30.57,8.0,South,5.8,-,0.00,,Overcast,190,2014-01-09 13:53:00
9:53 AM,3.9,1.0,88,30.58,4.0,SSW,9.2,-,0.00,Snow,Light Snow,210,2014-01-09 14:53:00
10:09 AM,3.9,1.0,88,30.49,2.0,South,9.2,-,0.00,Snow,Light Snow,180,2014-01-09 15:09:00
10:14 AM,3.9,1.0,88,30.49,3.0,SW,8.1,-,0.00,Snow,Light Snow,220,2014-01-09 15:14:00
10:25 AM,5.0,1.0,84,30.49,2.5,SSW,6.9,-,0.00,Snow,Light Snow,210,2014-01-09 15:25:00
10:37 AM,5.0,1.0,84,30.48,3.0,SW,5.8,-,0.00,Snow,Light Snow,220,2014-01-09 15:37:00
10:53 AM,5.0,1.9,87,30.56,10.0,Calm,Calm,-,0.00,,Mostly Cloudy,0,2014-01-09 15:53:00
11:09 AM,6.1,1.9,83,30.46,10.0,SSW,3.5,-,N/A,,Partly Cloudy,200,2014-01-09 16:09:00
11:53 AM,8.1,1.9,76,30.53,10.0,Calm,Calm,-,N/A,,Clear,0,2014-01-09 16:53:00
12:53 PM,10.0,1.9,70,30.47,10.0,SSW,5.8,-,N/A,,Clear,200,2014-01-09 17:53:00
1:53 PM,12.0,1.9,64,30.44,10.0,South,8.1,-,N/A,,Clear,180,2014-01-09 18:53:00
2:53 PM,12.9,3.0,65,30.41,10.0,South,5.8,-,N/A,,Clear,180,2014-01-09 19:53:00
3:53 PM,14.0,1.9,59,30.41,10.0,SSE,6.9,-,N/A,,Clear,160,2014-01-09 20:53:00
4:53 PM,10.9,1.9,67,30.42,10.0,SSE,10.4,-,N/A,,Scattered Clouds,160,2014-01-09 21:53:00
6:16 PM,10.9,3.0,70,30.31,10.0,South,10.4,-,N/A,,Overcast,180,2014-01-09 23:16:00
6:53 PM,10.9,3.0,70,30.39,10.0,South,6.9,-,N/A,,Overcast,180,2014-01-09 23:53:00
7:53 PM,10.9,3.9,73,30.37,10.0,South,4.6,-,N/A,,Overcast,180,2014-01-10 00:53:00
8:28 PM,10.9,3.9,73,30.27,10.0,South,5.8,-,N/A,,Overcast,190,2014-01-10 01:28:00
8:53 PM,12.0,5.0,73,30.35,10.0,South,3.5,-,N/A,,Overcast,180,2014-01-10 01:53:00
9:53 PM,12.9,7.0,77,30.32,10.0,South,5.8,-,N/A,,Overcast,180,2014-01-10 02:53:00
10:53 PM,14.0,9.0,80,30.30,10.0,South,6.9,-,N/A,,Overcast,190,2014-01-10 03:53:00
11:14 PM,14.0,9.0,80,30.21,10.0,South,8.1,-,N/A,,Overcast,180,2014-01-10 04:14:00
11:23 PM,14.0,10.0,84,30.21,10.0,South,6.9,-,N/A,,Overcast,180,2014-01-10 04:23:00
11:53 PM,15.1,10.0,80,30.27,10.0,South,6.9,-,N/A,,Overcast,180,2014-01-10 04:53:00